sensor_id;sensor_type;location;lat;lon;timestamp;temperature;humidity
12156;DHT22;6141;49.092;8.516;2023-02-28T00:01:14;3.10;29.70
12156;DHT22;6141;49.092;8.516;2023-02-28T00:03:42;3.10;29.40
12156;DHT22;6141;49.092;8.516;2023-02-28T00:06:12;3.10;29.60
12156;DHT22;6141;49.092;8.516;2023-02-28T00:08:40;3.00;29.70
12156;DHT22;6141;49.092;8.516;2023-02-28T00:11:10;3.00;29.80
12156;DHT22;6141;49.092;8.516;2023-02-28T00:13:40;3.00;29.70
12156;DHT22;6141;49.092;8.516;2023-02-28T00:16:12;3.00;29.70
12156;DHT22;6141;49.092;8.516;2023-02-28T00:18:41;3.00;29.50
12156;DHT22;6141;49.092;8.516;2023-02-28T00:21:09;3.00;29.60
12156;DHT22;6141;49.092;8.516;2023-02-28T00:23:38;2.90;29.70
12156;DHT22;6141;49.092;8.516;2023-02-28T00:26:06;2.90;29.70
12156;DHT22;6141;49.092;8.516;2023-02-28T00:28:36;2.90;30.00
12156;DHT22;6141;49.092;8.516;2023-02-28T00:31:04;2.80;30.00
12156;DHT22;6141;49.092;8.516;2023-02-28T00:33:36;2.80;30.00
12156;DHT22;6141;49.092;8.516;2023-02-28T00:36:05;2.90;29.70
12156;DHT22;6141;49.092;8.516;2023-02-28T00:38:35;2.80;29.80
12156;DHT22;6141;49.092;8.516;2023-02-28T00:41:04;2.80;30.50
12156;DHT22;6141;49.092;8.516;2023-02-28T00:43:32;2.70;30.10
12156;DHT22;6141;49.092;8.516;2023-02-28T00:46:01;2.70;30.30
12156;DHT22;6141;49.092;8.516;2023-02-28T00:48:29;2.60;30.30
12156;DHT22;6141;49.092;8.516;2023-02-28T00:50:59;2.60;30.20
12156;DHT22;6141;49.092;8.516;2023-02-28T00:53:28;2.60;30.40
12156;DHT22;6141;49.092;8.516;2023-02-28T00:55:57;2.60;30.40
12156;DHT22;6141;49.092;8.516;2023-02-28T00:58:25;2.60;30.30
12156;DHT22;6141;49.092;8.516;2023-02-28T01:00:54;2.60;30.50
12156;DHT22;6141;49.092;8.516;2023-02-28T01:03:22;2.70;30.60
12156;DHT22;6141;49.092;8.516;2023-02-28T01:05:51;2.40;30.40
12156;DHT22;6141;49.092;8.516;2023-02-28T01:08:21;2.70;30.20
12156;DHT22;6141;49.092;8.516;2023-02-28T01:10:49;2.70;30.40
12156;DHT22;6141;49.092;8.516;2023-02-28T01:13:18;2.60;30.60
12156;DHT22;6141;49.092;8.516;2023-02-28T01:15:49;2.60;30.60
12156;DHT22;6141;49.092;8.516;2023-02-28T01:18:18;2.50;30.90
12156;DHT22;6141;49.092;8.516;2023-02-28T01:20:47;2.50;30.80
12156;DHT22;6141;49.092;8.516;2023-02-28T01:23:16;2.50;30.80
12156;DHT22;6141;49.092;8.516;2023-02-28T01:25:45;2.50;30.80
12156;DHT22;6141;49.092;8.516;2023-02-28T01:28:13;2.50;30.90
12156;DHT22;6141;49.092;8.516;2023-02-28T01:30:42;2.60;30.90
12156;DHT22;6141;49.092;8.516;2023-02-28T01:33:10;2.60;30.90
12156;DHT22;6141;49.092;8.516;2023-02-28T01:35:38;2.60;30.80
12156;DHT22;6141;49.092;8.516;2023-02-28T01:38:07;2.50;30.90
12156;DHT22;6141;49.092;8.516;2023-02-28T01:40:49;2.50;31.10
12156;DHT22;6141;49.092;8.516;2023-02-28T01:43:22;2.50;31.40
12156;DHT22;6141;49.092;8.516;2023-02-28T01:45:51;2.40;31.50
12156;DHT22;6141;49.092;8.516;2023-02-28T01:48:21;2.50;31.60
12156;DHT22;6141;49.092;8.516;2023-02-28T01:50:52;2.40;31.70
12156;DHT22;6141;49.092;8.516;2023-02-28T01:53:24;2.40;31.80
12156;DHT22;6141;49.092;8.516;2023-02-28T01:55:54;2.60;32.00
12156;DHT22;6141;49.092;8.516;2023-02-28T01:58:23;2.40;32.20
12156;DHT22;6141;49.092;8.516;2023-02-28T02:00:51;2.40;32.20
12156;DHT22;6141;49.092;8.516;2023-02-28T02:03:19;2.40;32.30
12156;DHT22;6141;49.092;8.516;2023-02-28T02:05:48;2.30;32.20
12156;DHT22;6141;49.092;8.516;2023-02-28T02:08:17;2.40;32.30
12156;DHT22;6141;49.092;8.516;2023-02-28T02:10:46;2.40;32.30
12156;DHT22;6141;49.092;8.516;2023-02-28T02:13:32;2.50;32.40
12156;DHT22;6141;49.092;8.516;2023-02-28T02:16:04;2.40;32.30
12156;DHT22;6141;49.092;8.516;2023-02-28T02:18:38;2.40;32.30
12156;DHT22;6141;49.092;8.516;2023-02-28T02:21:13;2.40;32.30
12156;DHT22;6141;49.092;8.516;2023-02-28T02:23:54;2.30;32.40
12156;DHT22;6141;49.092;8.516;2023-02-28T02:32:22;2.20;33.10
12156;DHT22;6141;49.092;8.516;2023-02-28T02:34:58;2.20;33.20
12156;DHT22;6141;49.092;8.516;2023-02-28T02:37:32;2.10;33.40
12156;DHT22;6141;49.092;8.516;2023-02-28T02:40:08;2.10;33.50
12156;DHT22;6141;49.092;8.516;2023-02-28T02:42:39;2.00;33.60
12156;DHT22;6141;49.092;8.516;2023-02-28T02:45:10;2.00;33.80
12156;DHT22;6141;49.092;8.516;2023-02-28T02:47:39;2.00;33.50
12156;DHT22;6141;49.092;8.516;2023-02-28T02:50:11;2.10;33.70
12156;DHT22;6141;49.092;8.516;2023-02-28T02:52:42;2.00;33.90
12156;DHT22;6141;49.092;8.516;2023-02-28T02:55:12;2.00;34.10
12156;DHT22;6141;49.092;8.516;2023-02-28T02:57:43;1.90;33.90
12156;DHT22;6141;49.092;8.516;2023-02-28T03:00:13;1.90;34.00
12156;DHT22;6141;49.092;8.516;2023-02-28T03:02:43;1.90;34.30
12156;DHT22;6141;49.092;8.516;2023-02-28T03:05:14;2.00;34.20
12156;DHT22;6141;49.092;8.516;2023-02-28T03:07:43;2.00;34.00
12156;DHT22;6141;49.092;8.516;2023-02-28T03:10:28;2.00;33.90
12156;DHT22;6141;49.092;8.516;2023-02-28T03:13:00;2.00;34.00
12156;DHT22;6141;49.092;8.516;2023-02-28T03:15:36;2.00;34.10
12156;DHT22;6141;49.092;8.516;2023-02-28T03:18:12;2.00;34.00
12156;DHT22;6141;49.092;8.516;2023-02-28T03:20:49;2.00;34.00
12156;DHT22;6141;49.092;8.516;2023-02-28T03:23:28;2.00;34.40
12156;DHT22;6141;49.092;8.516;2023-02-28T03:26:02;2.00;34.30
12156;DHT22;6141;49.092;8.516;2023-02-28T03:28:31;1.90;34.20
12156;DHT22;6141;49.092;8.516;2023-02-28T03:31:03;1.90;34.30
12156;DHT22;6141;49.092;8.516;2023-02-28T03:33:37;1.90;34.40
12156;DHT22;6141;49.092;8.516;2023-02-28T03:36:09;1.90;34.60
12156;DHT22;6141;49.092;8.516;2023-02-28T03:38:40;1.90;34.50
12156;DHT22;6141;49.092;8.516;2023-02-28T03:41:10;1.90;34.50
12156;DHT22;6141;49.092;8.516;2023-02-28T03:43:40;1.90;34.60
12156;DHT22;6141;49.092;8.516;2023-02-28T03:46:10;1.90;34.70
12156;DHT22;6141;49.092;8.516;2023-02-28T03:48:41;2.10;34.70
12156;DHT22;6141;49.092;8.516;2023-02-28T03:51:14;1.90;34.50
12156;DHT22;6141;49.092;8.516;2023-02-28T03:53:44;1.90;34.50
12156;DHT22;6141;49.092;8.516;2023-02-28T03:56:14;1.90;34.40
12156;DHT22;6141;49.092;8.516;2023-02-28T03:58:46;1.90;34.30
12156;DHT22;6141;49.092;8.516;2023-02-28T04:01:18;1.90;34.60
12156;DHT22;6141;49.092;8.516;2023-02-28T04:03:49;1.90;34.80
12156;DHT22;6141;49.092;8.516;2023-02-28T04:06:20;1.90;34.90
12156;DHT22;6141;49.092;8.516;2023-02-28T04:08:49;1.80;34.90
12156;DHT22;6141;49.092;8.516;2023-02-28T04:11:19;1.80;34.90
12156;DHT22;6141;49.092;8.516;2023-02-28T04:13:47;1.80;35.10
12156;DHT22;6141;49.092;8.516;2023-02-28T04:16:15;1.90;35.10
12156;DHT22;6141;49.092;8.516;2023-02-28T04:19:00;2.00;35.30
12156;DHT22;6141;49.092;8.516;2023-02-28T04:21:31;1.80;35.00
12156;DHT22;6141;49.092;8.516;2023-02-28T04:24:00;1.80;35.20
12156;DHT22;6141;49.092;8.516;2023-02-28T04:26:28;1.80;35.30
12156;DHT22;6141;49.092;8.516;2023-02-28T04:28:57;1.80;36.30
12156;DHT22;6141;49.092;8.516;2023-02-28T04:31:26;1.90;35.20
12156;DHT22;6141;49.092;8.516;2023-02-28T04:33:55;1.90;35.00
12156;DHT22;6141;49.092;8.516;2023-02-28T04:36:23;1.90;34.80
12156;DHT22;6141;49.092;8.516;2023-02-28T04:38:52;1.70;35.00
12156;DHT22;6141;49.092;8.516;2023-02-28T04:41:20;1.80;35.20
12156;DHT22;6141;49.092;8.516;2023-02-28T04:43:50;1.80;35.50
12156;DHT22;6141;49.092;8.516;2023-02-28T04:46:19;1.80;35.70
12156;DHT22;6141;49.092;8.516;2023-02-28T04:48:47;1.80;35.30
12156;DHT22;6141;49.092;8.516;2023-02-28T04:51:16;1.90;35.40
12156;DHT22;6141;49.092;8.516;2023-02-28T04:53:44;2.00;35.10
12156;DHT22;6141;49.092;8.516;2023-02-28T04:56:14;2.10;34.50
12156;DHT22;6141;49.092;8.516;2023-02-28T04:58:43;1.80;34.20
12156;DHT22;6141;49.092;8.516;2023-02-28T05:01:16;2.00;34.30
12156;DHT22;6141;49.092;8.516;2023-02-28T05:03:44;1.90;34.70
12156;DHT22;6141;49.092;8.516;2023-02-28T05:06:13;2.00;34.50
12156;DHT22;6141;49.092;8.516;2023-02-28T05:08:41;2.00;34.40
12156;DHT22;6141;49.092;8.516;2023-02-28T05:11:12;2.00;34.40
12156;DHT22;6141;49.092;8.516;2023-02-28T05:13:42;2.00;34.60
12156;DHT22;6141;49.092;8.516;2023-02-28T05:16:10;1.90;34.80
12156;DHT22;6141;49.092;8.516;2023-02-28T05:18:38;1.80;34.80
12156;DHT22;6141;49.092;8.516;2023-02-28T05:21:12;1.90;35.00
12156;DHT22;6141;49.092;8.516;2023-02-28T05:23:50;1.90;34.60
12156;DHT22;6141;49.092;8.516;2023-02-28T05:26:18;1.90;34.80
12156;DHT22;6141;49.092;8.516;2023-02-28T05:28:48;1.70;34.80
12156;DHT22;6141;49.092;8.516;2023-02-28T05:31:16;1.90;34.70
12156;DHT22;6141;49.092;8.516;2023-02-28T05:33:44;1.80;35.10
12156;DHT22;6141;49.092;8.516;2023-02-28T05:36:12;1.90;35.10
12156;DHT22;6141;49.092;8.516;2023-02-28T05:38:40;1.90;35.10
12156;DHT22;6141;49.092;8.516;2023-02-28T05:41:09;1.90;35.10
12156;DHT22;6141;49.092;8.516;2023-02-28T05:43:38;1.90;35.30
12156;DHT22;6141;49.092;8.516;2023-02-28T05:46:08;2.00;35.00
12156;DHT22;6141;49.092;8.516;2023-02-28T05:48:38;1.90;35.20
12156;DHT22;6141;49.092;8.516;2023-02-28T05:51:07;1.80;35.10
12156;DHT22;6141;49.092;8.516;2023-02-28T05:53:35;1.80;35.40
12156;DHT22;6141;49.092;8.516;2023-02-28T05:56:04;1.70;35.90
12156;DHT22;6141;49.092;8.516;2023-02-28T05:58:32;1.80;36.70
12156;DHT22;6141;49.092;8.516;2023-02-28T06:01:18;1.80;35.70
12156;DHT22;6141;49.092;8.516;2023-02-28T06:03:48;1.80;35.60
12156;DHT22;6141;49.092;8.516;2023-02-28T06:06:16;1.80;35.50
12156;DHT22;6141;49.092;8.516;2023-02-28T06:08:44;1.90;35.50
12156;DHT22;6141;49.092;8.516;2023-02-28T06:11:13;1.80;35.80
12156;DHT22;6141;49.092;8.516;2023-02-28T06:13:41;1.80;35.80
12156;DHT22;6141;49.092;8.516;2023-02-28T06:16:10;1.80;35.70
12156;DHT22;6141;49.092;8.516;2023-02-28T06:18:38;1.80;35.90
12156;DHT22;6141;49.092;8.516;2023-02-28T06:21:07;1.80;35.60
12156;DHT22;6141;49.092;8.516;2023-02-28T06:23:38;1.80;35.90
12156;DHT22;6141;49.092;8.516;2023-02-28T06:26:06;1.90;36.10
12156;DHT22;6141;49.092;8.516;2023-02-28T06:28:34;1.80;36.10
12156;DHT22;6141;49.092;8.516;2023-02-28T06:31:05;1.80;35.90
12156;DHT22;6141;49.092;8.516;2023-02-28T06:33:34;1.80;36.00
12156;DHT22;6141;49.092;8.516;2023-02-28T06:36:03;1.80;36.10
12156;DHT22;6141;49.092;8.516;2023-02-28T06:38:33;1.70;36.10
12156;DHT22;6141;49.092;8.516;2023-02-28T06:41:01;1.70;36.40
12156;DHT22;6141;49.092;8.516;2023-02-28T06:43:31;1.70;36.30
12156;DHT22;6141;49.092;8.516;2023-02-28T06:46:01;1.70;35.90
12156;DHT22;6141;49.092;8.516;2023-02-28T06:48:30;1.70;36.10
12156;DHT22;6141;49.092;8.516;2023-02-28T06:51:02;1.60;36.00
12156;DHT22;6141;49.092;8.516;2023-02-28T06:53:30;1.70;36.40
12156;DHT22;6141;49.092;8.516;2023-02-28T06:55:59;1.70;36.40
12156;DHT22;6141;49.092;8.516;2023-02-28T06:58:32;1.70;36.50
12156;DHT22;6141;49.092;8.516;2023-02-28T07:01:00;1.80;36.40
12156;DHT22;6141;49.092;8.516;2023-02-28T07:03:29;1.80;36.50
12156;DHT22;6141;49.092;8.516;2023-02-28T07:06:00;1.70;36.40
12156;DHT22;6141;49.092;8.516;2023-02-28T07:08:29;1.70;36.30
12156;DHT22;6141;49.092;8.516;2023-02-28T07:11:00;1.80;36.50
12156;DHT22;6141;49.092;8.516;2023-02-28T07:13:28;1.90;35.90
12156;DHT22;6141;49.092;8.516;2023-02-28T07:15:57;2.00;35.60
12156;DHT22;6141;49.092;8.516;2023-02-28T07:18:26;2.10;35.30
12156;DHT22;6141;49.092;8.516;2023-02-28T07:20:56;2.00;35.30
12156;DHT22;6141;49.092;8.516;2023-02-28T07:23:24;2.10;35.30
12156;DHT22;6141;49.092;8.516;2023-02-28T07:25:54;2.10;35.00
12156;DHT22;6141;49.092;8.516;2023-02-28T07:28:24;2.10;35.00
12156;DHT22;6141;49.092;8.516;2023-02-28T07:30:52;2.00;35.20
12156;DHT22;6141;49.092;8.516;2023-02-28T07:33:21;2.00;35.40
12156;DHT22;6141;49.092;8.516;2023-02-28T07:35:50;2.00;35.70
12156;DHT22;6141;49.092;8.516;2023-02-28T07:38:18;2.00;35.60
12156;DHT22;6141;49.092;8.516;2023-02-28T07:40:47;2.00;35.20
12156;DHT22;6141;49.092;8.516;2023-02-28T07:43:15;2.00;35.30
12156;DHT22;6141;49.092;8.516;2023-02-28T07:45:45;1.90;35.50
12156;DHT22;6141;49.092;8.516;2023-02-28T07:48:15;2.00;35.70
12156;DHT22;6141;49.092;8.516;2023-02-28T07:50:43;1.90;35.50
12156;DHT22;6141;49.092;8.516;2023-02-28T07:53:14;1.90;35.60
12156;DHT22;6141;49.092;8.516;2023-02-28T07:55:42;2.00;35.70
12156;DHT22;6141;49.092;8.516;2023-02-28T07:58:11;2.10;35.40
12156;DHT22;6141;49.092;8.516;2023-02-28T08:00:39;2.20;35.30
12156;DHT22;6141;49.092;8.516;2023-02-28T08:03:09;2.20;35.20
12156;DHT22;6141;49.092;8.516;2023-02-28T08:05:39;2.20;35.40
12156;DHT22;6141;49.092;8.516;2023-02-28T08:08:07;2.30;34.80
12156;DHT22;6141;49.092;8.516;2023-02-28T08:10:36;2.50;34.90
12156;DHT22;6141;49.092;8.516;2023-02-28T08:13:07;2.40;34.70
12156;DHT22;6141;49.092;8.516;2023-02-28T08:15:35;2.40;34.80
12156;DHT22;6141;49.092;8.516;2023-02-28T08:18:04;2.40;34.80
12156;DHT22;6141;49.092;8.516;2023-02-28T08:20:34;2.30;34.70
12156;DHT22;6141;49.092;8.516;2023-02-28T08:23:02;2.30;35.20
12156;DHT22;6141;49.092;8.516;2023-02-28T08:25:30;2.30;35.10
12156;DHT22;6141;49.092;8.516;2023-02-28T08:27:58;2.20;35.70
12156;DHT22;6141;49.092;8.516;2023-02-28T08:30:26;2.40;35.20
12156;DHT22;6141;49.092;8.516;2023-02-28T08:32:54;2.50;34.50
12156;DHT22;6141;49.092;8.516;2023-02-28T08:35:23;2.50;34.20
12156;DHT22;6141;49.092;8.516;2023-02-28T08:37:55;2.50;34.30
12156;DHT22;6141;49.092;8.516;2023-02-28T08:40:23;2.50;34.40
12156;DHT22;6141;49.092;8.516;2023-02-28T08:42:51;2.50;34.10
12156;DHT22;6141;49.092;8.516;2023-02-28T08:45:19;2.60;34.00
12156;DHT22;6141;49.092;8.516;2023-02-28T08:47:47;2.70;33.50
12156;DHT22;6141;49.092;8.516;2023-02-28T08:50:15;2.80;33.00
12156;DHT22;6141;49.092;8.516;2023-02-28T08:52:43;2.90;33.50
12156;DHT22;6141;49.092;8.516;2023-02-28T08:55:13;3.10;33.20
12156;DHT22;6141;49.092;8.516;2023-02-28T08:57:41;3.30;33.10
12156;DHT22;6141;49.092;8.516;2023-02-28T09:00:09;3.40;32.00
12156;DHT22;6141;49.092;8.516;2023-02-28T09:02:40;3.40;32.20
12156;DHT22;6141;49.092;8.516;2023-02-28T09:05:10;3.60;31.70
12156;DHT22;6141;49.092;8.516;2023-02-28T09:07:38;3.80;31.70
12156;DHT22;6141;49.092;8.516;2023-02-28T09:10:06;4.00;30.60
12156;DHT22;6141;49.092;8.516;2023-02-28T09:12:37;4.10;29.70
12156;DHT22;6141;49.092;8.516;2023-02-28T09:15:05;4.00;30.20
12156;DHT22;6141;49.092;8.516;2023-02-28T09:17:34;4.10;30.70
12156;DHT22;6141;49.092;8.516;2023-02-28T09:20:03;4.30;30.00
12156;DHT22;6141;49.092;8.516;2023-02-28T09:22:31;4.50;29.90
12156;DHT22;6141;49.092;8.516;2023-02-28T09:24:59;4.80;29.50
12156;DHT22;6141;49.092;8.516;2023-02-28T09:27:29;5.00;28.80
12156;DHT22;6141;49.092;8.516;2023-02-28T09:29:59;5.20;28.50
12156;DHT22;6141;49.092;8.516;2023-02-28T09:32:27;5.40;27.70
12156;DHT22;6141;49.092;8.516;2023-02-28T09:34:55;5.30;28.10
12156;DHT22;6141;49.092;8.516;2023-02-28T09:37:23;5.40;27.60
12156;DHT22;6141;49.092;8.516;2023-02-28T09:39:57;5.40;27.50
12156;DHT22;6141;49.092;8.516;2023-02-28T09:42:27;5.40;27.00
12156;DHT22;6141;49.092;8.516;2023-02-28T09:45:01;5.50;27.80
12156;DHT22;6141;49.092;8.516;2023-02-28T09:47:31;5.60;27.10
12156;DHT22;6141;49.092;8.516;2023-02-28T09:50:03;5.60;26.70
12156;DHT22;6141;49.092;8.516;2023-02-28T09:52:35;5.60;26.50
12156;DHT22;6141;49.092;8.516;2023-02-28T09:55:12;5.60;28.10
12156;DHT22;6141;49.092;8.516;2023-02-28T09:57:46;5.80;27.10
12156;DHT22;6141;49.092;8.516;2023-02-28T10:00:16;5.90;26.50
12156;DHT22;6141;49.092;8.516;2023-02-28T10:02:51;5.90;26.20
12156;DHT22;6141;49.092;8.516;2023-02-28T10:05:25;5.80;26.30
12156;DHT22;6141;49.092;8.516;2023-02-28T10:08:00;5.70;26.40
12156;DHT22;6141;49.092;8.516;2023-02-28T10:10:33;5.70;27.00
12156;DHT22;6141;49.092;8.516;2023-02-28T10:13:04;5.70;26.60
12156;DHT22;6141;49.092;8.516;2023-02-28T10:15:35;5.70;26.50
12156;DHT22;6141;49.092;8.516;2023-02-28T10:18:05;5.90;26.60
12156;DHT22;6141;49.092;8.516;2023-02-28T10:20:37;6.10;26.30
12156;DHT22;6141;49.092;8.516;2023-02-28T10:23:09;6.20;25.60
12156;DHT22;6141;49.092;8.516;2023-02-28T10:25:38;6.40;25.70
12156;DHT22;6141;49.092;8.516;2023-02-28T10:28:09;6.50;24.90
12156;DHT22;6141;49.092;8.516;2023-02-28T10:30:39;6.30;24.60
12156;DHT22;6141;49.092;8.516;2023-02-28T10:33:10;6.00;25.30
12156;DHT22;6141;49.092;8.516;2023-02-28T10:35:44;6.10;25.10
12156;DHT22;6141;49.092;8.516;2023-02-28T10:38:15;6.10;25.30
12156;DHT22;6141;49.092;8.516;2023-02-28T10:40:44;5.90;25.10
12156;DHT22;6141;49.092;8.516;2023-02-28T10:43:19;5.80;25.90
12156;DHT22;6141;49.092;8.516;2023-02-28T10:45:59;6.00;26.00
12156;DHT22;6141;49.092;8.516;2023-02-28T10:48:31;6.10;26.10
12156;DHT22;6141;49.092;8.516;2023-02-28T10:51:00;6.20;25.50
12156;DHT22;6141;49.092;8.516;2023-02-28T10:53:33;6.40;26.10
12156;DHT22;6141;49.092;8.516;2023-02-28T10:56:23;6.50;24.90
12156;DHT22;6141;49.092;8.516;2023-02-28T10:58:52;6.50;25.00
12156;DHT22;6141;49.092;8.516;2023-02-28T11:01:22;6.60;25.00
12156;DHT22;6141;49.092;8.516;2023-02-28T11:03:51;6.70;25.10
12156;DHT22;6141;49.092;8.516;2023-02-28T11:06:20;6.70;23.70
12156;DHT22;6141;49.092;8.516;2023-02-28T11:08:50;6.70;24.30
12156;DHT22;6141;49.092;8.516;2023-02-28T11:11:19;6.80;24.30
12156;DHT22;6141;49.092;8.516;2023-02-28T11:13:50;6.90;24.00
12156;DHT22;6141;49.092;8.516;2023-02-28T11:16:19;6.90;24.40
12156;DHT22;6141;49.092;8.516;2023-02-28T11:18:50;7.10;24.10
12156;DHT22;6141;49.092;8.516;2023-02-28T11:21:20;7.20;24.50
12156;DHT22;6141;49.092;8.516;2023-02-28T11:23:49;7.30;22.80
12156;DHT22;6141;49.092;8.516;2023-02-28T11:29:03;7.50;23.30
12156;DHT22;6141;49.092;8.516;2023-02-28T11:31:33;7.60;22.70
12156;DHT22;6141;49.092;8.516;2023-02-28T11:34:10;7.40;22.60
12156;DHT22;6141;49.092;8.516;2023-02-28T11:36:48;7.50;22.90
12156;DHT22;6141;49.092;8.516;2023-02-28T11:39:17;7.60;21.90
12156;DHT22;6141;49.092;8.516;2023-02-28T11:41:50;7.40;22.30
12156;DHT22;6141;49.092;8.516;2023-02-28T11:44:23;7.30;22.30
12156;DHT22;6141;49.092;8.516;2023-02-28T11:46:54;7.30;22.10
12156;DHT22;6141;49.092;8.516;2023-02-28T11:49:31;7.00;22.00
12156;DHT22;6141;49.092;8.516;2023-02-28T11:52:05;6.70;22.70
12156;DHT22;6141;49.092;8.516;2023-02-28T11:54:41;6.80;23.80
12156;DHT22;6141;49.092;8.516;2023-02-28T11:57:15;6.40;23.50
12156;DHT22;6141;49.092;8.516;2023-02-28T11:59:50;6.40;23.80
12156;DHT22;6141;49.092;8.516;2023-02-28T12:02:26;6.40;24.00
12156;DHT22;6141;49.092;8.516;2023-02-28T12:07:49;6.60;23.80
12156;DHT22;6141;49.092;8.516;2023-02-28T12:10:21;6.60;23.70
12156;DHT22;6141;49.092;8.516;2023-02-28T12:12:54;6.80;23.70
12156;DHT22;6141;49.092;8.516;2023-02-28T12:15:35;6.60;23.80
12156;DHT22;6141;49.092;8.516;2023-02-28T12:18:09;6.40;24.00
12156;DHT22;6141;49.092;8.516;2023-02-28T12:20:41;6.40;24.40
12156;DHT22;6141;49.092;8.516;2023-02-28T12:23:25;6.50;24.60
12156;DHT22;6141;49.092;8.516;2023-02-28T12:26:02;6.70;23.70
12156;DHT22;6141;49.092;8.516;2023-02-28T12:28:38;6.60;23.90
12156;DHT22;6141;49.092;8.516;2023-02-28T12:31:08;6.80;23.60
12156;DHT22;6141;49.092;8.516;2023-02-28T12:33:39;6.80;23.90
12156;DHT22;6141;49.092;8.516;2023-02-28T12:36:10;7.00;23.90
12156;DHT22;6141;49.092;8.516;2023-02-28T12:38:41;7.10;23.50
12156;DHT22;6141;49.092;8.516;2023-02-28T12:41:13;7.30;23.50
12156;DHT22;6141;49.092;8.516;2023-02-28T12:43:43;7.30;23.20
12156;DHT22;6141;49.092;8.516;2023-02-28T12:46:12;7.40;23.00
12156;DHT22;6141;49.092;8.516;2023-02-28T12:48:44;7.50;22.20
12156;DHT22;6141;49.092;8.516;2023-02-28T12:51:14;7.50;22.30
12156;DHT22;6141;49.092;8.516;2023-02-28T12:53:49;7.10;22.80
12156;DHT22;6141;49.092;8.516;2023-02-28T12:56:20;6.90;23.10
12156;DHT22;6141;49.092;8.516;2023-02-28T12:58:51;6.90;23.50
12156;DHT22;6141;49.092;8.516;2023-02-28T13:01:32;7.20;23.70
12156;DHT22;6141;49.092;8.516;2023-02-28T13:04:19;7.40;23.00
12156;DHT22;6141;49.092;8.516;2023-02-28T13:06:56;7.50;22.40
12156;DHT22;6141;49.092;8.516;2023-02-28T13:09:29;7.40;23.30
12156;DHT22;6141;49.092;8.516;2023-02-28T13:11:57;7.70;21.90
12156;DHT22;6141;49.092;8.516;2023-02-28T13:14:26;7.60;22.20
12156;DHT22;6141;49.092;8.516;2023-02-28T13:16:58;7.60;21.60
12156;DHT22;6141;49.092;8.516;2023-02-28T13:19:27;7.40;21.90
12156;DHT22;6141;49.092;8.516;2023-02-28T13:21:59;7.40;22.20
12156;DHT22;6141;49.092;8.516;2023-02-28T13:27:23;7.40;22.40
12156;DHT22;6141;49.092;8.516;2023-02-28T13:29:52;7.60;23.10
12156;DHT22;6141;49.092;8.516;2023-02-28T13:41:09;8.50;21.30
12156;DHT22;6141;49.092;8.516;2023-02-28T13:44:01;8.90;22.40
12156;DHT22;6141;49.092;8.516;2023-02-28T13:46:30;9.10;21.30
12156;DHT22;6141;49.092;8.516;2023-02-28T13:51:42;9.10;20.10
12156;DHT22;6141;49.092;8.516;2023-02-28T13:54:23;8.80;20.60
12156;DHT22;6141;49.092;8.516;2023-02-28T13:56:56;8.60;21.30
12156;DHT22;6141;49.092;8.516;2023-02-28T13:59:31;8.60;21.30
12156;DHT22;6141;49.092;8.516;2023-02-28T14:02:03;8.70;21.20
12156;DHT22;6141;49.092;8.516;2023-02-28T14:04:46;8.70;21.40
12156;DHT22;6141;49.092;8.516;2023-02-28T14:07:16;8.70;21.30
12156;DHT22;6141;49.092;8.516;2023-02-28T14:09:46;8.70;21.40
12156;DHT22;6141;49.092;8.516;2023-02-28T14:15:03;8.90;20.80
12156;DHT22;6141;49.092;8.516;2023-02-28T14:17:32;8.90;21.00
12156;DHT22;6141;49.092;8.516;2023-02-28T14:20:01;8.80;20.50
12156;DHT22;6141;49.092;8.516;2023-02-28T14:22:43;8.70;20.10
12156;DHT22;6141;49.092;8.516;2023-02-28T14:25:18;8.40;20.90
12156;DHT22;6141;49.092;8.516;2023-02-28T14:27:54;8.30;21.60
12156;DHT22;6141;49.092;8.516;2023-02-28T14:30:48;8.40;21.20
12156;DHT22;6141;49.092;8.516;2023-02-28T14:33:22;8.60;21.40
12156;DHT22;6141;49.092;8.516;2023-02-28T14:38:36;8.50;21.20
12156;DHT22;6141;49.092;8.516;2023-02-28T14:41:12;8.60;21.40
12156;DHT22;6141;49.092;8.516;2023-02-28T14:43:47;8.60;21.40
12156;DHT22;6141;49.092;8.516;2023-02-28T14:46:17;8.70;19.90
12156;DHT22;6141;49.092;8.516;2023-02-28T14:48:46;8.70;20.40
12156;DHT22;6141;49.092;8.516;2023-02-28T14:51:18;8.90;20.50
12156;DHT22;6141;49.092;8.516;2023-02-28T14:53:49;8.80;20.40
12156;DHT22;6141;49.092;8.516;2023-02-28T14:56:23;8.80;20.40
12156;DHT22;6141;49.092;8.516;2023-02-28T14:58:52;8.90;20.30
12156;DHT22;6141;49.092;8.516;2023-02-28T15:01:22;9.00;20.20
12156;DHT22;6141;49.092;8.516;2023-02-28T15:03:58;8.90;19.70
12156;DHT22;6141;49.092;8.516;2023-02-28T15:06:28;8.70;20.10
12156;DHT22;6141;49.092;8.516;2023-02-28T15:09:07;8.60;20.10
12156;DHT22;6141;49.092;8.516;2023-02-28T15:11:35;8.40;20.90
12156;DHT22;6141;49.092;8.516;2023-02-28T15:14:05;8.30;20.70
12156;DHT22;6141;49.092;8.516;2023-02-28T15:16:36;8.20;21.00
12156;DHT22;6141;49.092;8.516;2023-02-28T15:19:06;8.10;20.90
12156;DHT22;6141;49.092;8.516;2023-02-28T15:21:36;8.30;21.20
12156;DHT22;6141;49.092;8.516;2023-02-28T15:24:06;8.40;20.60
12156;DHT22;6141;49.092;8.516;2023-02-28T15:26:36;8.50;21.30
12156;DHT22;6141;49.092;8.516;2023-02-28T15:29:06;8.60;20.40
12156;DHT22;6141;49.092;8.516;2023-02-28T15:31:39;8.70;20.40
12156;DHT22;6141;49.092;8.516;2023-02-28T15:34:22;8.70;20.30
12156;DHT22;6141;49.092;8.516;2023-02-28T15:39:50;8.60;20.20
12156;DHT22;6141;49.092;8.516;2023-02-28T15:42:19;8.40;20.80
12156;DHT22;6141;49.092;8.516;2023-02-28T15:44:48;8.30;20.70
12156;DHT22;6141;49.092;8.516;2023-02-28T15:47:18;8.30;21.10
12156;DHT22;6141;49.092;8.516;2023-02-28T15:49:50;8.10;21.00
12156;DHT22;6141;49.092;8.516;2023-02-28T15:52:21;8.10;21.00
12156;DHT22;6141;49.092;8.516;2023-02-28T15:54:50;8.00;20.90
12156;DHT22;6141;49.092;8.516;2023-02-28T15:57:19;7.90;20.90
12156;DHT22;6141;49.092;8.516;2023-02-28T15:59:50;7.90;20.90
12156;DHT22;6141;49.092;8.516;2023-02-28T16:02:21;7.90;21.50
12156;DHT22;6141;49.092;8.516;2023-02-28T16:04:57;8.00;21.80
12156;DHT22;6141;49.092;8.516;2023-02-28T16:07:26;8.10;21.00
12156;DHT22;6141;49.092;8.516;2023-02-28T16:09:54;8.10;21.00
12156;DHT22;6141;49.092;8.516;2023-02-28T16:12:25;8.00;21.00
12156;DHT22;6141;49.092;8.516;2023-02-28T16:14:54;7.80;20.90
12156;DHT22;6141;49.092;8.516;2023-02-28T16:17:35;7.80;21.30
12156;DHT22;6141;49.092;8.516;2023-02-28T16:20:11;7.70;21.20
12156;DHT22;6141;49.092;8.516;2023-02-28T16:22:39;7.70;21.60
12156;DHT22;6141;49.092;8.516;2023-02-28T16:25:11;7.90;20.90
12156;DHT22;6141;49.092;8.516;2023-02-28T16:27:39;7.80;20.80
12156;DHT22;6141;49.092;8.516;2023-02-28T16:30:09;7.70;21.50
12156;DHT22;6141;49.092;8.516;2023-02-28T16:32:44;7.60;21.50
12156;DHT22;6141;49.092;8.516;2023-02-28T16:35:12;7.60;22.00
12156;DHT22;6141;49.092;8.516;2023-02-28T16:37:41;7.40;22.30
12156;DHT22;6141;49.092;8.516;2023-02-28T16:40:12;7.20;22.50
12156;DHT22;6141;49.092;8.516;2023-02-28T16:42:41;7.10;22.30
12156;DHT22;6141;49.092;8.516;2023-02-28T16:45:16;7.00;22.50
12156;DHT22;6141;49.092;8.516;2023-02-28T16:47:47;6.90;22.90
12156;DHT22;6141;49.092;8.516;2023-02-28T16:50:17;6.90;23.30
12156;DHT22;6141;49.092;8.516;2023-02-28T16:52:45;6.90;23.20
12156;DHT22;6141;49.092;8.516;2023-02-28T16:55:15;6.90;23.30
12156;DHT22;6141;49.092;8.516;2023-02-28T16:57:46;6.80;23.20
12156;DHT22;6141;49.092;8.516;2023-02-28T17:00:19;6.70;23.50